createdAt,value
2023-04-28T00:00:51.156Z,8.96
2023-04-28T00:03:18.034Z,8.97
2023-04-28T00:05:44.785Z,8.92
2023-04-28T00:08:11.324Z,8.88
2023-04-28T00:10:37.796Z,8.92
2023-04-28T00:13:04.278Z,8.91
2023-04-28T00:15:30.849Z,8.93
2023-04-28T00:17:57.306Z,8.89
2023-04-28T00:20:23.858Z,8.91
2023-04-28T00:22:50.631Z,8.91
2023-04-28T00:25:17.240Z,8.89
2023-04-28T00:27:43.723Z,8.90
2023-04-28T00:30:10.900Z,8.90
2023-04-28T00:32:37.476Z,8.89
2023-04-28T00:35:04.179Z,8.86
2023-04-28T00:37:30.804Z,8.84
2023-04-28T00:39:57.495Z,8.84
2023-04-28T00:42:24.304Z,8.84
2023-04-28T00:44:50.808Z,8.81
2023-04-28T00:47:18.269Z,8.83
2023-04-28T00:49:45.534Z,8.78
2023-04-28T00:52:12.001Z,8.82
2023-04-28T00:54:38.681Z,8.80
2023-04-28T00:57:05.221Z,8.80
2023-04-28T00:59:31.981Z,8.74
2023-04-28T01:02:00.192Z,8.76
2023-04-28T01:04:29.136Z,8.77
2023-04-28T01:06:56.912Z,8.80
2023-04-28T01:09:23.358Z,8.78
2023-04-28T01:11:49.783Z,8.79
2023-04-28T01:14:16.382Z,8.77
2023-04-28T01:16:43.432Z,8.71
2023-04-28T01:19:20.211Z,8.68
2023-04-28T01:21:46.637Z,8.63
2023-04-28T01:24:13.355Z,8.64
2023-04-28T01:26:40.065Z,8.62
2023-04-28T01:29:06.648Z,8.64
2023-04-28T01:31:33.150Z,8.61
2023-04-28T01:33:59.647Z,8.57
2023-04-28T01:36:27.419Z,8.55
2023-04-28T01:38:54.484Z,8.53
2023-04-28T01:41:21.206Z,8.53
2023-04-28T01:43:47.714Z,8.51
2023-04-28T01:46:14.199Z,8.52
2023-04-28T01:48:40.723Z,8.51
2023-04-28T01:51:07.249Z,8.51
2023-04-28T01:53:34.065Z,8.51
2023-04-28T01:56:19.251Z,8.50
2023-04-28T01:58:46.082Z,8.45
2023-04-28T02:01:12.819Z,8.45
2023-04-28T02:03:39.435Z,8.41
2023-04-28T02:06:06.046Z,8.39
2023-04-28T02:08:32.594Z,8.33
2023-04-28T02:10:59.038Z,8.32
2023-04-28T02:13:25.464Z,8.26
2023-04-28T02:15:51.962Z,8.27
2023-04-28T02:18:18.424Z,8.28
2023-04-28T02:20:44.868Z,8.23
2023-04-28T02:23:11.319Z,8.22
2023-04-28T02:25:37.812Z,8.16
2023-04-28T02:28:04.382Z,8.12
2023-04-28T02:30:30.963Z,8.13
2023-04-28T02:32:57.480Z,8.06
2023-04-28T02:35:23.980Z,8.00
2023-04-28T02:37:50.779Z,7.97
2023-04-28T02:40:17.392Z,7.95
2023-04-28T02:42:43.845Z,7.92
2023-04-28T02:45:10.822Z,7.87
2023-04-28T02:47:37.293Z,7.88
2023-04-28T02:50:04.335Z,7.89
2023-04-28T02:52:30.932Z,7.85
2023-04-28T02:54:57.598Z,7.86
2023-04-28T02:57:24.371Z,7.82
2023-04-28T02:59:50.932Z,7.78
2023-04-28T03:02:17.518Z,7.71
2023-04-28T03:04:44.112Z,7.68
2023-04-28T03:07:10.783Z,7.66
2023-04-28T03:09:37.212Z,7.66
2023-04-28T03:12:03.887Z,7.69
2023-04-28T03:14:30.768Z,7.68
2023-04-28T03:16:57.843Z,7.62
2023-04-28T03:19:24.344Z,7.60
2023-04-28T03:21:50.842Z,7.59
2023-04-28T03:24:17.557Z,7.54
2023-04-28T03:26:44.469Z,7.54
2023-04-28T03:29:10.960Z,7.54
2023-04-28T03:31:37.429Z,7.55
2023-04-28T03:34:04.466Z,7.49
2023-04-28T03:36:32.074Z,7.51
2023-04-28T03:38:58.580Z,7.53
2023-04-28T03:41:25.043Z,7.47
2023-04-28T03:43:52.002Z,7.48
2023-04-28T03:46:18.557Z,7.47
2023-04-28T03:48:46.137Z,7.46
2023-04-28T03:51:12.670Z,7.46
2023-04-28T03:53:39.157Z,7.35
2023-04-28T03:56:06.194Z,7.38
2023-04-28T03:58:32.693Z,7.37
2023-04-28T04:01:00.924Z,7.33
2023-04-28T04:03:27.689Z,7.33
2023-04-28T04:05:55.666Z,7.34
2023-04-28T04:08:22.260Z,7.35
2023-04-28T04:10:48.715Z,7.37
2023-04-28T04:13:15.251Z,7.37
2023-04-28T04:15:41.743Z,7.38
2023-04-28T04:18:08.362Z,7.43
2023-04-28T04:20:34.869Z,7.44
2023-04-28T04:23:02.017Z,7.40
2023-04-28T04:25:28.593Z,7.43
2023-04-28T04:27:55.121Z,7.47
2023-04-28T04:30:21.715Z,7.46
2023-04-28T04:32:48.494Z,7.46
2023-04-28T04:35:15.052Z,7.42
2023-04-28T04:37:41.526Z,7.49
2023-04-28T04:40:08.864Z,7.49
2023-04-28T04:42:35.554Z,7.51
2023-04-28T04:45:02.074Z,7.50
2023-04-28T04:47:28.696Z,7.49
2023-04-28T04:49:55.247Z,7.53
2023-04-28T04:52:21.724Z,7.57
2023-04-28T04:54:48.251Z,7.60
2023-04-28T04:57:14.753Z,7.63
2023-04-28T04:59:41.467Z,7.65
2023-04-28T05:02:08.161Z,7.71
2023-04-28T05:04:34.883Z,7.74
2023-04-28T05:07:01.399Z,7.77
2023-04-28T05:09:29.044Z,7.79
2023-04-28T05:11:56.026Z,7.76
2023-04-28T05:14:22.453Z,7.89
2023-04-28T05:16:49.422Z,7.89
2023-04-28T05:19:16.327Z,7.91
2023-04-28T05:21:42.892Z,7.94
2023-04-28T05:24:09.316Z,7.93
2023-04-28T05:26:36.718Z,7.99
2023-04-28T05:29:03.184Z,8.00
2023-04-28T05:31:29.692Z,8.01
2023-04-28T05:33:56.228Z,8.02
2023-04-28T05:36:22.690Z,8.05
2023-04-28T05:38:49.245Z,8.12
2023-04-28T05:41:15.905Z,8.17
2023-04-28T05:43:42.653Z,8.24
2023-04-28T05:46:18.146Z,8.27
2023-04-28T05:48:48.710Z,8.27
2023-04-28T05:51:15.171Z,8.34
2023-04-28T05:53:41.871Z,8.37
2023-04-28T05:56:08.421Z,8.44
2023-04-28T05:58:35.074Z,8.46
2023-04-28T06:01:01.571Z,8.49
2023-04-28T06:03:28.331Z,8.49
2023-04-28T06:05:55.047Z,8.53
2023-04-28T06:08:21.547Z,8.56
2023-04-28T06:10:48.017Z,8.59
2023-04-28T06:13:14.818Z,8.60
2023-04-28T06:15:41.521Z,8.63
2023-04-28T06:18:09.709Z,8.66
2023-04-28T06:20:36.355Z,8.67
2023-04-28T06:23:03.389Z,8.71
2023-04-28T06:25:29.920Z,8.73
2023-04-28T06:27:56.544Z,8.76
2023-04-28T06:30:24.120Z,8.80
2023-04-28T06:32:50.828Z,8.82
2023-04-28T06:35:17.338Z,8.89
2023-04-28T06:37:43.869Z,8.91
2023-04-28T06:40:11.240Z,8.99
2023-04-28T06:42:37.728Z,9.02
2023-04-28T06:45:04.395Z,9.07
2023-04-28T06:47:30.948Z,9.11
2023-04-28T06:49:57.526Z,9.18
2023-04-28T06:52:33.076Z,9.25
2023-04-28T06:55:07.602Z,9.30
2023-04-28T06:57:34.174Z,9.35
2023-04-28T07:00:00.958Z,9.38
2023-04-28T07:02:27.498Z,9.45
2023-04-28T07:04:54.184Z,9.52
2023-04-28T07:07:20.749Z,9.59
2023-04-28T07:09:47.265Z,9.70
2023-04-28T07:12:13.771Z,9.81
2023-04-28T07:14:40.465Z,9.93
2023-04-28T07:17:06.942Z,10.06
2023-04-28T07:19:33.415Z,10.21
2023-04-28T07:21:59.869Z,10.32
2023-04-28T07:24:27.298Z,10.41
2023-04-28T07:26:53.886Z,10.52
2023-04-28T07:29:20.463Z,10.63
2023-04-28T07:31:46.973Z,10.70
2023-04-28T07:34:13.569Z,10.80
2023-04-28T07:36:40.439Z,10.89
2023-04-28T07:39:07.108Z,11.01
2023-04-28T07:41:40.444Z,11.09
2023-04-28T07:44:10.541Z,11.24
2023-04-28T07:46:38.030Z,11.34
2023-04-28T07:49:04.878Z,11.47
2023-04-28T07:51:31.412Z,11.62
2023-04-28T07:53:58.388Z,11.72
2023-04-28T07:56:25.798Z,11.82
2023-04-28T07:58:52.672Z,11.88
2023-04-28T08:01:19.201Z,12.01
2023-04-28T08:03:46.310Z,12.11
2023-04-28T08:06:13.317Z,12.16
2023-04-28T08:08:40.459Z,12.26
2023-04-28T08:11:07.737Z,12.36
2023-04-28T08:13:34.648Z,12.47
2023-04-28T08:16:01.253Z,12.36
2023-04-28T08:18:28.896Z,12.45
2023-04-28T08:20:55.774Z,12.48
2023-04-28T08:23:22.339Z,12.60
2023-04-28T08:25:50.245Z,12.72
2023-04-28T08:28:16.893Z,12.73
2023-04-28T08:30:43.365Z,12.77
2023-04-28T08:33:09.873Z,12.82
2023-04-28T08:35:36.366Z,12.82
2023-04-28T08:38:02.838Z,12.71
2023-04-28T08:40:31.409Z,12.89
2023-04-28T08:42:58.502Z,13.01
2023-04-28T08:45:27.859Z,13.22
2023-04-28T08:47:56.877Z,13.20
2023-04-28T08:50:25.880Z,13.41
2023-04-28T08:52:52.607Z,13.38
2023-04-28T08:55:19.591Z,13.26
2023-04-28T08:57:49.863Z,13.46
2023-04-28T09:00:17.728Z,13.47
2023-04-28T09:02:44.430Z,13.35
2023-04-28T09:05:12.452Z,13.42
2023-04-28T09:07:39.606Z,13.66
2023-04-28T09:10:23.871Z,13.61
2023-04-28T09:12:55.213Z,13.81
2023-04-28T09:15:31.842Z,14.07
2023-04-28T09:18:01.162Z,14.27
2023-04-28T09:20:30.427Z,14.23
2023-04-28T09:23:13.613Z,14.42
2023-04-28T09:25:40.151Z,14.47
2023-04-28T09:28:22.317Z,14.36
2023-04-28T09:30:49.089Z,14.37
2023-04-28T09:33:16.279Z,14.35
2023-04-28T09:35:45.783Z,14.34
2023-04-28T09:38:12.358Z,14.27
2023-04-28T09:40:51.858Z,14.19
2023-04-28T09:43:26.728Z,14.13
2023-04-28T09:45:54.197Z,13.97
2023-04-28T09:48:47.177Z,13.87
2023-04-28T09:51:21.161Z,13.85
2023-04-28T09:53:47.703Z,13.70
2023-04-28T09:56:14.488Z,13.83
2023-04-28T09:58:44.025Z,13.64
2023-04-28T10:01:13.386Z,13.70
2023-04-28T10:03:43.218Z,13.88
2023-04-28T10:06:10.128Z,13.97
2023-04-28T10:08:36.649Z,14.09
2023-04-28T10:11:04.491Z,14.15
2023-04-28T10:13:31.198Z,14.37
2023-04-28T10:15:58.606Z,14.37
2023-04-28T10:18:25.777Z,14.17
2023-04-28T10:20:58.414Z,14.07
2023-04-28T10:23:47.198Z,14.01
2023-04-28T10:26:15.391Z,14.10
2023-04-28T10:28:49.791Z,14.18
2023-04-28T10:31:18.743Z,14.17
2023-04-28T10:33:45.316Z,14.18
2023-04-28T10:36:11.973Z,14.09
2023-04-28T10:39:09.663Z,14.07
2023-04-28T10:41:36.322Z,13.98
2023-04-28T10:44:28.731Z,13.99
2023-04-28T10:47:04.851Z,13.91
2023-04-28T10:49:57.670Z,13.75
2023-04-28T10:52:33.550Z,13.69
2023-04-28T10:55:37.326Z,13.74
2023-04-28T10:58:16.201Z,13.79
2023-04-28T11:00:47.901Z,13.80
2023-04-28T11:03:46.680Z,13.76
2023-04-28T11:06:27.197Z,13.75
2023-04-28T11:08:55.656Z,13.66
2023-04-28T11:11:22.866Z,13.63
2023-04-28T11:13:50.112Z,13.61
2023-04-28T11:16:19.600Z,13.57
2023-04-28T11:18:55.956Z,13.57
2023-04-28T11:21:24.259Z,13.55
2023-04-28T11:23:51.071Z,13.59
2023-04-28T11:26:19.332Z,13.39
2023-04-28T11:28:52.959Z,13.42
2023-04-28T11:31:24.242Z,13.28
2023-04-28T11:34:05.221Z,13.19
2023-04-28T11:36:35.426Z,13.05
2023-04-28T11:39:07.784Z,13.10
2023-04-28T11:41:39.260Z,13.17
2023-04-28T11:44:16.380Z,13.08
2023-04-28T11:46:50.683Z,13.03
2023-04-28T11:49:18.866Z,13.00
2023-04-28T11:51:47.009Z,12.98
2023-04-28T11:54:14.927Z,13.06
2023-04-28T11:56:42.779Z,12.93
2023-04-28T11:59:11.311Z,13.05
2023-04-28T12:02:02.917Z,13.02
2023-04-28T12:04:43.530Z,12.98
2023-04-28T12:07:14.111Z,12.80
2023-04-28T12:09:44.633Z,12.90
2023-04-28T12:12:18.528Z,12.92
2023-04-28T12:15:07.389Z,12.85
2023-04-28T12:17:36.363Z,12.99
2023-04-28T12:20:06.494Z,12.90
2023-04-28T12:22:47.884Z,12.92
2023-04-28T12:25:17.146Z,12.95
2023-04-28T12:28:07.436Z,13.08
2023-04-28T12:30:38.851Z,13.08
2023-04-28T12:33:05.468Z,13.11
2023-04-28T12:35:33.191Z,13.18
2023-04-28T12:37:59.879Z,13.25
2023-04-28T12:40:26.990Z,13.21
2023-04-28T12:42:53.877Z,13.28
2023-04-28T12:45:20.388Z,13.24
2023-04-28T12:47:48.091Z,13.28
2023-04-28T12:50:14.645Z,13.36
2023-04-28T12:52:41.205Z,13.27
2023-04-28T12:55:08.306Z,13.40
2023-04-28T12:57:38.931Z,13.30
2023-04-28T13:00:07.350Z,13.54
2023-04-28T13:02:34.105Z,13.67
2023-04-28T13:05:01.971Z,13.77
2023-04-28T13:07:28.727Z,13.94
2023-04-28T13:09:55.977Z,14.19
2023-04-28T13:12:23.003Z,14.51
2023-04-28T13:14:49.826Z,14.91
2023-04-28T13:17:16.485Z,14.98
2023-04-28T13:19:43.822Z,15.37
2023-04-28T13:22:10.663Z,15.60
2023-04-28T13:24:37.155Z,15.85
2023-04-28T13:27:04.180Z,16.02
2023-04-28T13:29:30.780Z,16.01
2023-04-28T13:31:57.350Z,16.13
2023-04-28T13:34:23.963Z,15.65
2023-04-28T13:36:53.954Z,15.69
2023-04-28T13:39:21.992Z,15.68
2023-04-28T13:41:49.411Z,15.86
2023-04-28T13:44:16.770Z,16.07
2023-04-28T13:46:43.477Z,16.17
2023-04-28T13:49:10.570Z,16.04
2023-04-28T13:51:37.321Z,16.07
2023-04-28T13:54:04.706Z,16.22
2023-04-28T13:56:32.035Z,16.29
2023-04-28T13:58:58.866Z,16.21
2023-04-28T14:01:25.508Z,16.26
2023-04-28T14:03:52.311Z,16.03
2023-04-28T14:06:19.170Z,15.99
2023-04-28T14:08:45.693Z,15.99
2023-04-28T14:11:12.332Z,16.01
2023-04-28T14:13:38.801Z,15.92
2023-04-28T14:16:05.744Z,16.05
2023-04-28T14:18:33.857Z,16.13
2023-04-28T14:21:02.059Z,16.12
2023-04-28T14:23:28.782Z,15.93
2023-04-28T14:25:56.876Z,15.93
2023-04-28T14:28:23.647Z,15.95
2023-04-28T14:30:50.189Z,15.94
2023-04-28T14:33:16.767Z,15.99
2023-04-28T14:35:43.465Z,15.86
2023-04-28T14:38:10.052Z,15.94
2023-04-28T14:40:36.572Z,15.92
2023-04-28T14:43:03.043Z,15.92
2023-04-28T14:45:29.691Z,15.87
2023-04-28T14:47:56.307Z,15.95
2023-04-28T14:50:22.812Z,16.05
2023-04-28T14:52:49.630Z,16.27
2023-04-28T14:55:16.222Z,16.39
2023-04-28T14:57:42.738Z,16.36
2023-04-28T15:00:09.771Z,16.29
2023-04-28T15:02:36.621Z,16.31
2023-04-28T15:05:03.537Z,16.32
2023-04-28T15:07:31.714Z,16.29
2023-04-28T15:09:59.537Z,16.17
2023-04-28T15:12:26.310Z,16.14
2023-04-28T15:14:53.782Z,16.16
2023-04-28T15:17:23.462Z,16.40
2023-04-28T15:19:49.904Z,16.49
2023-04-28T15:22:16.950Z,16.47
2023-04-28T15:24:43.436Z,16.45
2023-04-28T15:27:10.009Z,16.40
2023-04-28T15:29:36.501Z,16.13
2023-04-28T15:32:03.106Z,16.06
2023-04-28T15:34:29.589Z,16.01
2023-04-28T15:36:56.685Z,15.89
2023-04-28T15:39:25.086Z,15.39
2023-04-28T15:41:52.916Z,15.41
2023-04-28T15:44:19.800Z,15.28
2023-04-28T15:46:46.357Z,15.22
2023-04-28T15:49:16.085Z,15.11
2023-04-28T15:51:42.873Z,15.17
2023-04-28T15:54:09.328Z,15.34
2023-04-28T15:56:35.929Z,15.28
2023-04-28T15:59:02.551Z,15.41
2023-04-28T16:01:29.570Z,15.13
2023-04-28T16:03:56.344Z,15.00
2023-04-28T16:06:23.500Z,15.02
2023-04-28T16:08:49.961Z,15.02
2023-04-28T16:11:19.422Z,14.96
2023-04-28T16:13:45.900Z,14.94
2023-04-28T16:16:12.665Z,14.93
2023-04-28T16:18:39.413Z,14.98
2023-04-28T16:21:06.415Z,14.95
2023-04-28T16:23:33.068Z,14.98
2023-04-28T16:25:59.559Z,14.88
2023-04-28T16:28:27.020Z,14.83
2023-04-28T16:30:53.609Z,14.92
2023-04-28T16:33:20.400Z,14.90
2023-04-28T16:35:54.254Z,15.02
2023-04-28T16:38:21.439Z,14.93
2023-04-28T16:40:47.959Z,15.05
2023-04-28T16:43:14.583Z,15.14
2023-04-28T16:45:41.315Z,14.99
2023-04-28T16:48:08.008Z,15.14
2023-04-28T16:50:34.544Z,15.05
2023-04-28T16:53:01.232Z,14.99
2023-04-28T16:55:27.818Z,15.03
2023-04-28T16:57:54.357Z,14.99
2023-04-28T17:00:21.311Z,15.00
2023-04-28T17:02:47.894Z,14.85
2023-04-28T17:05:14.554Z,14.79
2023-04-28T17:07:41.208Z,14.64
2023-04-28T17:10:08.308Z,14.51
2023-04-28T17:12:34.841Z,14.27
2023-04-28T17:15:01.449Z,14.29
2023-04-28T17:17:29.174Z,14.05
2023-04-28T17:19:56.861Z,14.03
2023-04-28T17:22:23.346Z,13.74
2023-04-28T17:24:49.799Z,13.57
2023-04-28T17:27:16.291Z,13.43
2023-04-28T17:29:43.503Z,13.44
2023-04-28T17:32:11.022Z,13.34
2023-04-28T17:34:37.699Z,13.39
2023-04-28T17:37:04.194Z,13.27
2023-04-28T17:39:30.724Z,13.34
2023-04-28T17:41:58.535Z,13.28
2023-04-28T17:44:25.439Z,13.28
2023-04-28T17:46:51.972Z,13.29
2023-04-28T17:49:18.747Z,13.37
2023-04-28T17:51:45.223Z,13.38
2023-04-28T17:54:11.790Z,13.27
2023-04-28T17:56:39.243Z,13.32
2023-04-28T17:59:06.334Z,13.35
2023-04-28T18:01:36.775Z,13.29
2023-04-28T18:04:03.337Z,13.34
2023-04-28T18:06:29.874Z,13.39
2023-04-28T18:08:56.377Z,13.34
2023-04-28T18:11:23.373Z,13.36
2023-04-28T18:13:49.885Z,13.38
2023-04-28T18:16:16.350Z,13.24
2023-04-28T18:18:42.853Z,13.29
2023-04-28T18:21:09.592Z,13.21
2023-04-28T18:23:38.753Z,13.12
2023-04-28T18:26:05.343Z,13.06
2023-04-28T18:28:33.822Z,13.04
2023-04-28T18:31:05.429Z,13.01
2023-04-28T18:33:32.706Z,12.95
2023-04-28T18:36:00.840Z,12.89
2023-04-28T18:38:27.520Z,12.92
2023-04-28T18:40:53.983Z,12.84
2023-04-28T18:43:21.320Z,12.77
2023-04-28T18:45:49.016Z,12.75
2023-04-28T18:48:15.596Z,12.71
2023-04-28T18:50:42.589Z,12.62
2023-04-28T18:53:10.338Z,12.58
2023-04-28T18:55:37.040Z,12.56
2023-04-28T18:58:04.032Z,12.53
2023-04-28T19:00:31.046Z,12.60
2023-04-28T19:02:57.883Z,12.53
2023-04-28T19:05:24.820Z,12.47
2023-04-28T19:07:51.483Z,12.59
2023-04-28T19:10:18.047Z,12.56
2023-04-28T19:12:44.532Z,12.62
2023-04-28T19:15:11.044Z,12.57
2023-04-28T19:17:37.551Z,12.57
2023-04-28T19:20:04.384Z,12.63
2023-04-28T19:22:35.020Z,12.52
2023-04-28T19:25:02.450Z,12.56
2023-04-28T19:27:31.276Z,12.53
2023-04-28T19:29:59.067Z,12.56
2023-04-28T19:32:25.659Z,12.52
2023-04-28T19:34:52.841Z,12.45
2023-04-28T19:37:20.077Z,12.38
2023-04-28T19:39:47.332Z,12.43
2023-04-28T19:42:13.866Z,12.48
2023-04-28T19:44:40.415Z,12.41
2023-04-28T19:47:07.458Z,12.34
2023-04-28T19:49:35.127Z,12.25
2023-04-28T19:52:01.691Z,12.27
2023-04-28T19:54:28.293Z,12.22
2023-04-28T19:56:55.524Z,12.21
2023-04-28T19:59:22.499Z,12.15
2023-04-28T20:01:49.976Z,12.10
2023-04-28T20:04:16.735Z,12.12
2023-04-28T20:06:43.454Z,12.12
2023-04-28T20:09:10.266Z,12.07
2023-04-28T20:11:37.299Z,12.08
2023-04-28T20:14:03.811Z,12.03
2023-04-28T20:16:30.375Z,12.06
2023-04-28T20:18:56.850Z,11.98
2023-04-28T20:21:23.341Z,11.88
2023-04-28T20:23:50.639Z,11.89
2023-04-28T20:26:17.123Z,11.83
2023-04-28T20:28:46.470Z,11.89
2023-04-28T20:31:13.704Z,11.84
2023-04-28T20:33:40.295Z,11.78
2023-04-28T20:36:06.845Z,11.81
2023-04-28T20:38:33.428Z,11.78
2023-04-28T20:40:59.961Z,11.72
2023-04-28T20:43:26.671Z,11.80
2023-04-28T20:45:53.129Z,11.71
2023-04-28T20:48:19.647Z,11.83
2023-04-28T20:50:48.522Z,11.79
2023-04-28T20:53:14.987Z,11.80
2023-04-28T20:55:41.504Z,11.80
2023-04-28T20:58:08.069Z,11.77
2023-04-28T21:00:38.160Z,11.70
2023-04-28T21:03:05.134Z,11.75
2023-04-28T21:05:31.841Z,11.79
2023-04-28T21:07:58.412Z,11.78
2023-04-28T21:10:24.856Z,11.79
2023-04-28T21:12:51.323Z,11.79
2023-04-28T21:15:17.834Z,11.75
2023-04-28T21:17:44.373Z,11.68
2023-04-28T21:20:11.751Z,11.74
2023-04-28T21:22:38.287Z,11.72
2023-04-28T21:25:05.790Z,11.74
2023-04-28T21:27:32.614Z,11.68
2023-04-28T21:29:59.186Z,11.68
2023-04-28T21:32:26.582Z,11.64
2023-04-28T21:34:53.176Z,11.55
2023-04-28T21:37:19.687Z,11.67
2023-04-28T21:39:46.156Z,11.66
2023-04-28T21:42:12.935Z,11.67
2023-04-28T21:44:39.416Z,11.59
2023-04-28T21:47:06.733Z,11.61
2023-04-28T21:49:33.219Z,11.60
2023-04-28T21:51:59.745Z,11.64
2023-04-28T21:54:26.220Z,11.65
2023-04-28T21:56:52.735Z,11.65
2023-04-28T21:59:19.206Z,11.62
2023-04-28T22:01:45.975Z,11.55
2023-04-28T22:04:12.886Z,11.67
2023-04-28T22:06:39.640Z,11.69
2023-04-28T22:09:07.064Z,11.63
2023-04-28T22:11:33.866Z,11.57
2023-04-28T22:14:00.852Z,11.54
2023-04-28T22:16:28.015Z,11.52
2023-04-28T22:18:54.503Z,11.52
2023-04-28T22:21:21.191Z,11.53
2023-04-28T22:23:47.671Z,11.53
2023-04-28T22:26:14.905Z,11.44
2023-04-28T22:28:41.733Z,11.43
2023-04-28T22:31:08.341Z,11.43
2023-04-28T22:33:35.361Z,11.40
2023-04-28T22:36:02.249Z,11.43
2023-04-28T22:38:28.710Z,11.44
2023-04-28T22:40:55.276Z,11.45
2023-04-28T22:43:21.775Z,11.36
2023-04-28T22:45:48.236Z,11.18
2023-04-28T22:48:14.686Z,11.16
2023-04-28T22:50:41.145Z,11.20
2023-04-28T22:53:08.122Z,11.17
2023-04-28T22:55:34.577Z,11.15
2023-04-28T22:58:01.140Z,11.10
2023-04-28T23:00:27.690Z,11.07
2023-04-28T23:02:54.249Z,11.00
2023-04-28T23:05:20.912Z,11.05
2023-04-28T23:07:47.372Z,11.03
2023-04-28T23:10:14.669Z,10.96
2023-04-28T23:12:41.380Z,10.98
2023-04-28T23:15:08.183Z,10.94
2023-04-28T23:17:34.744Z,10.93
2023-04-28T23:20:01.216Z,10.95
2023-04-28T23:22:27.740Z,10.96
2023-04-28T23:24:54.220Z,10.96
2023-04-28T23:27:20.744Z,10.90
2023-04-28T23:29:47.222Z,10.91
2023-04-28T23:32:13.718Z,10.87
2023-04-28T23:34:42.161Z,10.84
2023-04-28T23:37:08.829Z,10.82
2023-04-28T23:39:35.354Z,10.76
2023-04-28T23:42:02.335Z,10.77
2023-04-28T23:44:28.809Z,10.84
2023-04-28T23:46:56.360Z,10.69
2023-04-28T23:49:23.767Z,10.72
2023-04-28T23:51:50.268Z,10.72
2023-04-28T23:54:16.932Z,10.78
2023-04-28T23:56:43.388Z,10.72
2023-04-28T23:59:09.837Z,10.76
